Terminal Aerodrome Forecast
Issued by NWS

Home | Current Version | Previous Version | Text Only | Print | Product List | Glossary On
Versions: 1 2 3 4 5 6 7 8 9 10 11 12 13 14 15 16 17 18 19
607
FTUS46 KSEW 310325 AAA
TAFBFI
TAF AMD
KBFI 310325Z 3103/3124 18006KT P6SM SCT040 BKN200
     FM311000 18006KT P6SM SCT040 BKN100 OVC200
     FM311600 18008KT P6SM -RA OVC040
     FM312200 18008KT P6SM VCSH BKN040=

USA.gov is the U.S. government's official web portal to all federal, state and local government web resources and services.